Darstellungsparameter: Aktuell verwendete Einstellungen:
Skalierung der Graphiken ... ?
xyx+y,   Skalierungsfaktor:      Skalierung: Modus: x, Faktor: 1
Darstellungszeitraum ... ?
Vom - - bis: - -   Zeitraum: 18.01.2021 - 18.01.2021
Min/Max/Avg-Anzeige ... ?
Zeige MMA aktuell
Zeige MMA Monat
Zeige MMA alles
Zeige --A aktuell
Zeige --A Monat
Zeige --A alles
Keine MMA-Anzeige
MMA:
Average (ber die Originaldaten)
MMA-Basis: 18.01.2021 - 18.01.2021
Quicknavigation für Darstellung... ?
Tage:      1T, 2T, 3T, 5T -1T -2T -3T -5T +1T +2T +3T +5T
Wochen: 1W, 2W, 3W -1W -2W -3W +1W +2W +3W
Monate: 1M, 3M, 6M -1M -3M -6M +1M +3M +6M
Jahre:    1J, 3J, 5J, 10J -1J -3J -5J -10J +1J +3J +5J +10J
Nutze für die Darstellung ... ?
Originaldaten oder Mittelwerte auf ...
Stundenbasis Tagesbasis Wochenbasis
Monatsbasis Jahresbasis      Datenbasis: Original-Daten
Darstellen als:
Statistik (Auto) Statistik J:M      Darstellung:
Zur Graphik,    zurück zur Übersicht aller Sensoren.
 
Tabellarische Datenbersicht: ?
 
Sensor: Nr:Datum:Temp:Abs-Feuchte:Windchill:Wind:
Aussen-T/F 1 18-01-2021 00:00:00 2.4 C 5.54 g/m*3 2.4 C 3.2 km/h
2 18-01-2021 00:05:00 2.4 C 5.54 g/m*3 2.4 C 1.6 km/h
3 18-01-2021 00:10:00 2.4 C 5.54 g/m*3 2.4 C 3.2 km/h
4 18-01-2021 00:15:00 2.3 C 5.5 g/m*3 2.3 C 3.2 km/h
5 18-01-2021 00:20:00 2.3 C 5.5 g/m*3 2.3 C 3.2 km/h
6 18-01-2021 00:25:00 2.3 C 5.5 g/m*3 2.3 C 4.8 km/h
7 18-01-2021 00:30:00 2.3 C 5.5 g/m*3 2.3 C 3.2 km/h
8 18-01-2021 00:35:00 2.4 C 5.54 g/m*3 2.4 C 3.2 km/h
9 18-01-2021 00:40:00 2.4 C 5.54 g/m*3 2.4 C 4.8 km/h
10 18-01-2021 00:45:00 2.3 C 5.5 g/m*3 2.3 C 3.2 km/h
11 18-01-2021 00:50:00 2.3 C 5.5 g/m*3 2.3 C 1.6 km/h
12 18-01-2021 00:55:00 2.3 C 5.5 g/m*3 2.3 C 1.6 km/h
13 18-01-2021 01:00:00 2.3 C 5.5 g/m*3 2.3 C 4.8 km/h
14 18-01-2021 01:05:00 2.3 C 5.5 g/m*3 2.3 C 0 km/h
15 18-01-2021 01:10:00 2.3 C 5.5 g/m*3 2.3 C 3.2 km/h
16 18-01-2021 01:15:00 2.3 C 5.5 g/m*3 2.3 C 3.2 km/h
17 18-01-2021 01:20:00 2.3 C 5.5 g/m*3 2.3 C 4.8 km/h
18 18-01-2021 01:25:00 2.3 C 5.5 g/m*3 2.3 C 4.8 km/h
19 18-01-2021 01:30:00 2.3 C 5.5 g/m*3 2.3 C 4.8 km/h
20 18-01-2021 01:35:00 2.3 C 5.5 g/m*3 2.3 C 3.2 km/h
21 18-01-2021 01:40:00 2.3 C 5.5 g/m*3 2.3 C 1.6 km/h
22 18-01-2021 01:45:00 2.3 C 5.5 g/m*3 2.3 C 0 km/h
23 18-01-2021 01:50:00 2.3 C 5.5 g/m*3 2.3 C 1.6 km/h
24 18-01-2021 01:55:00 2.3 C 5.5 g/m*3 2.3 C 3.2 km/h
25 18-01-2021 02:00:00 2.3 C 5.5 g/m*3 2.3 C 1.6 km/h
Sensor: Nr:Datum:Temp:Abs-Feuchte:Windchill:Wind:
Aussen-T/F 26 18-01-2021 02:05:00 2.3 C 5.5 g/m*3 2.3 C 1.6 km/h
27 18-01-2021 02:10:00 2.3 C 5.5 g/m*3 2.3 C 3.2 km/h
28 18-01-2021 02:15:00 2.4 C 5.54 g/m*3 0.59 C 6.4 km/h
29 18-01-2021 02:20:00 2.4 C 5.54 g/m*3 0.59 C 6.4 km/h
30 18-01-2021 02:25:00 2.5 C 5.58 g/m*3 2.5 C 3.2 km/h
31 18-01-2021 02:30:00 2.5 C 5.58 g/m*3 2.5 C 4.8 km/h
32 18-01-2021 02:35:00 2.5 C 5.58 g/m*3 2.5 C 0 km/h
33 18-01-2021 02:40:00 2.5 C 5.58 g/m*3 2.5 C 3.2 km/h
34 18-01-2021 02:45:00 2.5 C 5.58 g/m*3 2.5 C 1.6 km/h
35 18-01-2021 02:50:00 2.5 C 5.58 g/m*3 2.5 C 0 km/h
36 18-01-2021 02:55:00 2.5 C 5.58 g/m*3 2.5 C 1.6 km/h
37 18-01-2021 03:00:00 2.5 C 5.58 g/m*3 2.5 C 4.8 km/h
38 18-01-2021 03:05:00 2.5 C 5.58 g/m*3 2.5 C 3.2 km/h
39 18-01-2021 03:10:00 2.5 C 5.58 g/m*3 2.5 C 4.8 km/h
40 18-01-2021 03:15:00 2.6 C 5.61 g/m*3 2.6 C 3.2 km/h
41 18-01-2021 03:20:00 2.7 C 5.65 g/m*3 2.7 C 1.6 km/h
42 18-01-2021 03:25:00 2.7 C 5.65 g/m*3 2.7 C 0 km/h
43 18-01-2021 03:30:00 2.7 C 5.65 g/m*3 2.7 C 1.6 km/h
44 18-01-2021 03:35:00 2.7 C 5.65 g/m*3 2.7 C 3.2 km/h
45 18-01-2021 03:40:00 2.6 C 5.61 g/m*3 2.6 C 1.6 km/h
46 18-01-2021 03:45:00 2.6 C 5.61 g/m*3 2.6 C 3.2 km/h
47 18-01-2021 03:50:00 2.5 C 5.58 g/m*3 2.5 C 0 km/h
48 18-01-2021 03:55:00 2.4 C 5.54 g/m*3 2.4 C 3.2 km/h
49 18-01-2021 04:00:00 2.2 C 5.46 g/m*3 2.2 C 1.6 km/h
50 18-01-2021 04:05:00 2.1 C 5.43 g/m*3 2.1 C 0 km/h
Sensor: Nr:Datum:Temp:Abs-Feuchte:Windchill:Wind:
Aussen-T/F 51 18-01-2021 04:10:00 2 C 5.39 g/m*3 2 C 3.2 km/h
52 18-01-2021 04:15:00 2 C 5.39 g/m*3 2 C 4.8 km/h
53 18-01-2021 04:20:00 2 C 5.39 g/m*3 2 C 3.2 km/h
54 18-01-2021 04:25:00 1.9 C 5.35 g/m*3 1.9 C 3.2 km/h
55 18-01-2021 04:30:00 1.9 C 5.35 g/m*3 1.9 C 1.6 km/h
56 18-01-2021 04:35:00 2 C 5.39 g/m*3 2 C 3.2 km/h
57 18-01-2021 04:40:00 2 C 5.39 g/m*3 2 C 3.2 km/h
58 18-01-2021 04:45:00 2.1 C 5.43 g/m*3 2.1 C 1.6 km/h
59 18-01-2021 04:50:00 2.1 C 5.43 g/m*3 2.1 C 3.2 km/h
60 18-01-2021 04:55:00 2.2 C 5.46 g/m*3 2.2 C 1.6 km/h
61 18-01-2021 05:00:00 2.2 C 5.46 g/m*3 2.2 C 1.6 km/h
62 18-01-2021 05:05:00 2.2 C 5.46 g/m*3 0.36 C 6.4 km/h
63 18-01-2021 05:10:00 2.3 C 5.5 g/m*3 2.3 C 1.6 km/h
64 18-01-2021 05:15:00 2.3 C 5.5 g/m*3 2.3 C 0 km/h
65 18-01-2021 05:20:00 2.3 C 5.5 g/m*3 2.3 C 3.2 km/h
66 18-01-2021 05:25:00 2.3 C 5.5 g/m*3 2.3 C 4.8 km/h
67 18-01-2021 05:30:00 2.3 C 5.5 g/m*3 2.3 C 1.6 km/h
68 18-01-2021 05:35:00 2.3 C 5.5 g/m*3 2.3 C 4.8 km/h
69 18-01-2021 05:40:00 2.3 C 5.5 g/m*3 2.3 C 4.8 km/h
70 18-01-2021 05:45:00 2.4 C 5.54 g/m*3 2.4 C 4.8 km/h
71 18-01-2021 05:50:00 2.4 C 5.54 g/m*3 0.59 C 6.4 km/h
72 18-01-2021 05:55:00 2.4 C 5.54 g/m*3 0.05 C 8.1 km/h
73 18-01-2021 06:00:00 2.4 C 5.54 g/m*3 0.05 C 8.1 km/h
74 18-01-2021 06:05:00 2.4 C 5.54 g/m*3 -0.37 C 9.7 km/h
75 18-01-2021 06:10:00 2.4 C 5.54 g/m*3 0.59 C 6.4 km/h
Sensor: Nr:Datum:Temp:Abs-Feuchte:Windchill:Wind:
Aussen-T/F 76 18-01-2021 06:15:00 2.4 C 5.54 g/m*3 0.05 C 8.1 km/h
77 18-01-2021 06:20:00 2.4 C 5.54 g/m*3 0.05 C 8.1 km/h
78 18-01-2021 06:25:00 2.5 C 5.58 g/m*3 -0.26 C 9.7 km/h
79 18-01-2021 06:30:00 2.5 C 5.58 g/m*3 0.71 C 6.4 km/h
80 18-01-2021 06:35:00 2.5 C 5.58 g/m*3 0.17 C 8.1 km/h
81 18-01-2021 06:40:00 2.5 C 5.58 g/m*3 0.71 C 6.4 km/h
82 18-01-2021 06:45:00 2.4 C 5.54 g/m*3 -1.07 C 12.9 km/h
83 18-01-2021 06:50:00 2.4 C 5.54 g/m*3 0.59 C 6.4 km/h
84 18-01-2021 06:55:00 2.4 C 5.54 g/m*3 2.4 C 3.2 km/h
85 18-01-2021 07:00:00 2.4 C 5.54 g/m*3 0.59 C 6.4 km/h
86 18-01-2021 07:05:00 2.4 C 5.54 g/m*3 -0.37 C 9.7 km/h
87 18-01-2021 07:10:00 2.4 C 5.54 g/m*3 -0.37 C 9.7 km/h
88 18-01-2021 07:15:00 2.5 C 5.58 g/m*3 0.17 C 8.1 km/h
89 18-01-2021 07:20:00 2.5 C 5.58 g/m*3 -0.62 C 11.3 km/h
90 18-01-2021 07:25:00 2.5 C 5.58 g/m*3 -0.62 C 11.3 km/h
91 18-01-2021 07:30:00 2.5 C 5.58 g/m*3 -0.26 C 9.7 km/h
92 18-01-2021 07:35:00 2.5 C 5.58 g/m*3 -0.26 C 9.7 km/h
93 18-01-2021 07:40:00 2.5 C 5.52 g/m*3 -0.26 C 9.7 km/h
94 18-01-2021 07:45:00 2.5 C 5.52 g/m*3 0.71 C 6.4 km/h
95 18-01-2021 07:50:00 2.5 C 5.52 g/m*3 -0.62 C 11.3 km/h
96 18-01-2021 07:55:00 2.5 C 5.52 g/m*3 -0.26 C 9.7 km/h
97 18-01-2021 08:00:00 2.5 C 5.52 g/m*3 -0.26 C 9.7 km/h
98 18-01-2021 08:05:00 2.6 C 5.56 g/m*3 -0.83 C 12.9 km/h
99 18-01-2021 08:10:00 2.6 C 5.56 g/m*3 0.82 C 6.4 km/h
100 18-01-2021 08:15:00 2.6 C 5.56 g/m*3 -0.14 C 9.7 km/h
Sensor: Nr:Datum:Temp:Abs-Feuchte:Windchill:Wind:
Aussen-T/F 101 18-01-2021 08:20:00 2.6 C 5.56 g/m*3 0.29 C 8.1 km/h
102 18-01-2021 08:25:00 2.6 C 5.56 g/m*3 -0.14 C 9.7 km/h
103 18-01-2021 08:30:00 2.6 C 5.56 g/m*3 -0.5 C 11.3 km/h
104 18-01-2021 08:35:00 2.6 C 5.56 g/m*3 -0.5 C 11.3 km/h
105 18-01-2021 08:40:00 2.6 C 5.5 g/m*3 0.29 C 8.1 km/h
106 18-01-2021 08:45:00 2.6 C 5.5 g/m*3 -0.14 C 9.7 km/h
107 18-01-2021 08:50:00 2.6 C 5.5 g/m*3 0.82 C 6.4 km/h
108 18-01-2021 08:55:00 2.6 C 5.5 g/m*3 -0.14 C 9.7 km/h
109 18-01-2021 09:00:00 2.6 C 5.5 g/m*3 -0.5 C 11.3 km/h
110 18-01-2021 09:05:00 2.6 C 5.5 g/m*3 -0.14 C 9.7 km/h
111 18-01-2021 09:10:00 2.7 C 5.54 g/m*3 -0.02 C 9.7 km/h
112 18-01-2021 09:15:00 2.7 C 5.54 g/m*3 -0.02 C 9.7 km/h
113 18-01-2021 09:20:00 2.7 C 5.54 g/m*3 -0.02 C 9.7 km/h
114 18-01-2021 09:25:00 2.7 C 5.54 g/m*3 -0.38 C 11.3 km/h
115 18-01-2021 09:30:00 2.8 C 5.57 g/m*3 0.52 C 8.1 km/h
116 18-01-2021 09:35:00 2.9 C 5.61 g/m*3 0.22 C 9.7 km/h
117 18-01-2021 09:40:00 2.9 C 5.61 g/m*3 -0.14 C 11.3 km/h
118 18-01-2021 09:45:00 3.1 C 5.69 g/m*3 -0.51 C 14.5 km/h
119 18-01-2021 09:50:00 3.1 C 5.69 g/m*3 0.46 C 9.7 km/h
120 18-01-2021 09:55:00 3.2 C 5.72 g/m*3 0.58 C 9.7 km/h
121 18-01-2021 10:00:00 3.3 C 5.7 g/m*3 0.02 C 12.9 km/h
122 18-01-2021 10:05:00 3.3 C 5.7 g/m*3 0.7 C 9.7 km/h
123 18-01-2021 10:10:00 3.3 C 5.7 g/m*3 3.3 C 4.8 km/h
124 18-01-2021 10:15:00 3.4 C 5.74 g/m*3 0.46 C 11.3 km/h
125 18-01-2021 10:20:00 3.4 C 5.74 g/m*3 1.23 C 8.1 km/h
Sensor: Nr:Datum:Temp:Abs-Feuchte:Windchill:Wind:
Aussen-T/F 126 18-01-2021 10:25:00 3.4 C 5.74 g/m*3 0.82 C 9.7 km/h
127 18-01-2021 10:30:00 3.4 C 5.74 g/m*3 0.14 C 12.9 km/h
128 18-01-2021 10:35:00 3.4 C 5.68 g/m*3 0.82 C 9.7 km/h
129 18-01-2021 10:40:00 3.5 C 5.72 g/m*3 -0.02 C 14.5 km/h
130 18-01-2021 10:45:00 3.6 C 5.76 g/m*3 0.7 C 11.3 km/h
131 18-01-2021 10:50:00 3.6 C 5.76 g/m*3 0.7 C 11.3 km/h
132 18-01-2021 10:55:00 3.7 C 5.8 g/m*3 0.82 C 11.3 km/h
133 18-01-2021 11:00:00 3.7 C 5.8 g/m*3 1.58 C 8.1 km/h
134 18-01-2021 11:05:00 3.8 C 5.83 g/m*3 1.29 C 9.7 km/h
135 18-01-2021 11:10:00 3.9 C 5.87 g/m*3 1.41 C 9.7 km/h
136 18-01-2021 11:15:00 4.1 C 5.95 g/m*3 1 C 12.9 km/h
137 18-01-2021 11:20:00 4.1 C 5.89 g/m*3 1.31 C 11.3 km/h
138 18-01-2021 11:25:00 4.2 C 5.93 g/m*3 2.17 C 8.1 km/h
139 18-01-2021 11:30:00 4.2 C 5.93 g/m*3 1.43 C 11.3 km/h
140 18-01-2021 11:35:00 4.3 C 5.9 g/m*3 2.29 C 8.1 km/h
141 18-01-2021 11:40:00 4.3 C 5.9 g/m*3 1.89 C 9.7 km/h
142 18-01-2021 11:45:00 4.3 C 5.9 g/m*3 1.55 C 11.3 km/h
143 18-01-2021 11:50:00 4.3 C 5.9 g/m*3 2.29 C 8.1 km/h
144 18-01-2021 11:55:00 4.4 C 5.94 g/m*3 1.67 C 11.3 km/h
145 18-01-2021 12:00:00 4.4 C 5.94 g/m*3 1.67 C 11.3 km/h
146 18-01-2021 12:05:00 4.5 C 5.98 g/m*3 1.48 C 12.9 km/h
147 18-01-2021 12:10:00 4.6 C 5.96 g/m*3 1.91 C 11.3 km/h
148 18-01-2021 12:15:00 4.6 C 5.96 g/m*3 1.91 C 11.3 km/h
149 18-01-2021 12:20:00 4.6 C 5.96 g/m*3 1.09 C 16.1 km/h
150 18-01-2021 12:25:00 4.6 C 5.96 g/m*3 1.34 C 14.5 km/h
Sensor: Nr:Datum:Temp:Abs-Feuchte:Windchill:Wind:
Aussen-T/F 151 18-01-2021 12:30:00 4.7 C 6 g/m*3 2.76 C 8.1 km/h
152 18-01-2021 12:35:00 4.8 C 6.04 g/m*3 2.15 C 11.3 km/h
153 18-01-2021 12:40:00 4.9 C 6.01 g/m*3 2.27 C 11.3 km/h
154 18-01-2021 12:45:00 5 C 6.05 g/m*3 1.83 C 14.5 km/h
155 18-01-2021 12:50:00 5.2 C 6.13 g/m*3 2.96 C 9.7 km/h
156 18-01-2021 12:55:00 5.2 C 6.13 g/m*3 2.96 C 9.7 km/h
157 18-01-2021 13:00:00 5.3 C 6.17 g/m*3 2.75 C 11.3 km/h
158 18-01-2021 13:05:00 5.4 C 6.14 g/m*3 3.58 C 8.1 km/h
159 18-01-2021 13:10:00 5.5 C 6.18 g/m*3 2.7 C 12.9 km/h
160 18-01-2021 13:15:00 5.5 C 6.11 g/m*3 2.7 C 12.9 km/h
161 18-01-2021 13:20:00 5.6 C 6.15 g/m*3 2.57 C 14.5 km/h
162 18-01-2021 13:25:00 5.5 C 6.11 g/m*3 2.7 C 12.9 km/h
163 18-01-2021 13:30:00 5.5 C 6.11 g/m*3 2.44 C 14.5 km/h
164 18-01-2021 13:35:00 5.5 C 6.04 g/m*3 1.99 C 17.7 km/h
165 18-01-2021 13:40:00 5.6 C 6.08 g/m*3 3.11 C 11.3 km/h
166 18-01-2021 13:45:00 5.6 C 6.08 g/m*3 1.91 C 19.3 km/h
167 18-01-2021 13:50:00 5.6 C 6.08 g/m*3 2.33 C 16.1 km/h
168 18-01-2021 13:55:00 5.6 C 6.08 g/m*3 2.57 C 14.5 km/h
169 18-01-2021 14:00:00 5.6 C 6.01 g/m*3 1.72 C 20.9 km/h
170 18-01-2021 14:05:00 5.6 C 6.01 g/m*3 1.72 C 20.9 km/h
171 18-01-2021 14:10:00 5.7 C 6.05 g/m*3 2.95 C 12.9 km/h
172 18-01-2021 14:15:00 5.7 C 6.05 g/m*3 2.95 C 12.9 km/h
173 18-01-2021 14:20:00 5.8 C 6.09 g/m*3 2.81 C 14.5 km/h
174 18-01-2021 14:25:00 5.7 C 6.05 g/m*3 1.85 C 20.9 km/h
175 18-01-2021 14:30:00 5.7 C 5.98 g/m*3 2.69 C 14.5 km/h
Sensor: Nr:Datum:Temp:Abs-Feuchte:Windchill:Wind:
Aussen-T/F 176 18-01-2021 14:35:00 5.7 C 5.98 g/m*3 2.24 C 17.7 km/h
177 18-01-2021 14:40:00 5.7 C 5.98 g/m*3 2.03 C 19.3 km/h
178 18-01-2021 14:45:00 5.7 C 5.98 g/m*3 2.03 C 19.3 km/h
179 18-01-2021 14:50:00 5.7 C 5.98 g/m*3 2.24 C 17.7 km/h
180 18-01-2021 14:55:00 5.6 C 5.94 g/m*3 1.54 C 22.5 km/h
181 18-01-2021 15:00:00 5.6 C 5.94 g/m*3 2.57 C 14.5 km/h
182 18-01-2021 15:05:00 5.6 C 5.94 g/m*3 2.33 C 16.1 km/h
183 18-01-2021 15:10:00 5.5 C 5.9 g/m*3 2.44 C 14.5 km/h
184 18-01-2021 15:15:00 5.5 C 5.9 g/m*3 2.44 C 14.5 km/h
185 18-01-2021 15:20:00 5.4 C 5.86 g/m*3 2.32 C 14.5 km/h
186 18-01-2021 15:25:00 5.4 C 5.86 g/m*3 3.2 C 9.7 km/h
187 18-01-2021 15:30:00 5.4 C 5.86 g/m*3 1.86 C 17.7 km/h
188 18-01-2021 15:35:00 5.3 C 5.82 g/m*3 2.2 C 14.5 km/h
189 18-01-2021 15:40:00 5.3 C 5.82 g/m*3 2.75 C 11.3 km/h
190 18-01-2021 15:45:00 5.3 C 5.82 g/m*3 1.96 C 16.1 km/h
191 18-01-2021 15:50:00 5.3 C 5.82 g/m*3 2.75 C 11.3 km/h
192 18-01-2021 15:55:00 5.4 C 5.86 g/m*3 2.87 C 11.3 km/h
193 18-01-2021 16:00:00 5.3 C 5.82 g/m*3 3.46 C 8.1 km/h
194 18-01-2021 16:05:00 5.3 C 5.82 g/m*3 3.08 C 9.7 km/h
195 18-01-2021 16:10:00 5.2 C 5.78 g/m*3 3.82 C 6.4 km/h
196 18-01-2021 16:15:00 5.2 C 5.78 g/m*3 1.83 C 16.1 km/h
197 18-01-2021 16:20:00 5.1 C 5.75 g/m*3 2.22 C 12.9 km/h
198 18-01-2021 16:25:00 5.1 C 5.75 g/m*3 3.23 C 8.1 km/h
199 18-01-2021 16:30:00 4.9 C 5.67 g/m*3 2.99 C 8.1 km/h
200 18-01-2021 16:35:00 4.8 C 5.7 g/m*3 2.15 C 11.3 km/h
Sensor: Nr:Datum:Temp:Abs-Feuchte:Windchill:Wind:
Aussen-T/F 201 18-01-2021 16:40:00 4.8 C 5.7 g/m*3 2.49 C 9.7 km/h
202 18-01-2021 16:45:00 4.8 C 5.7 g/m*3 1.85 C 12.9 km/h
203 18-01-2021 16:50:00 4.8 C 5.7 g/m*3 1.34 C 16.1 km/h
204 18-01-2021 16:55:00 4.7 C 5.66 g/m*3 1.46 C 14.5 km/h
205 18-01-2021 17:00:00 4.7 C 5.66 g/m*3 1.73 C 12.9 km/h
206 18-01-2021 17:05:00 4.7 C 5.73 g/m*3 0.99 C 17.7 km/h
207 18-01-2021 17:10:00 4.7 C 5.73 g/m*3 2.37 C 9.7 km/h
208 18-01-2021 17:15:00 4.6 C 5.69 g/m*3 2.64 C 8.1 km/h
209 18-01-2021 17:20:00 4.6 C 5.69 g/m*3 2.25 C 9.7 km/h
210 18-01-2021 17:25:00 4.5 C 5.65 g/m*3 2.13 C 9.7 km/h
211 18-01-2021 17:30:00 4.4 C 5.68 g/m*3 2.4 C 8.1 km/h
212 18-01-2021 17:35:00 4.4 C 5.68 g/m*3 2.4 C 8.1 km/h
213 18-01-2021 17:40:00 4.4 C 5.68 g/m*3 2.01 C 9.7 km/h
214 18-01-2021 17:45:00 4.4 C 5.68 g/m*3 2.9 C 6.4 km/h
215 18-01-2021 17:50:00 4.4 C 5.68 g/m*3 1.67 C 11.3 km/h
216 18-01-2021 17:55:00 4.5 C 5.72 g/m*3 1.79 C 11.3 km/h
217 18-01-2021 18:00:00 4.4 C 5.68 g/m*3 0.84 C 16.1 km/h
218 18-01-2021 18:05:00 4.5 C 5.72 g/m*3 1.79 C 11.3 km/h
219 18-01-2021 18:10:00 4.5 C 5.72 g/m*3 1.79 C 11.3 km/h
220 18-01-2021 18:15:00 4.6 C 5.76 g/m*3 0.65 C 19.3 km/h
221 18-01-2021 18:20:00 4.6 C 5.69 g/m*3 1.61 C 12.9 km/h
222 18-01-2021 18:25:00 4.6 C 5.69 g/m*3 1.34 C 14.5 km/h
223 18-01-2021 18:30:00 4.6 C 5.76 g/m*3 1.91 C 11.3 km/h
224 18-01-2021 18:35:00 4.6 C 5.76 g/m*3 1.09 C 16.1 km/h
225 18-01-2021 18:40:00 4.6 C 5.76 g/m*3 1.34 C 14.5 km/h
Sensor: Nr:Datum:Temp:Abs-Feuchte:Windchill:Wind:
Aussen-T/F 226 18-01-2021 18:45:00 4.6 C 5.76 g/m*3 1.91 C 11.3 km/h
227 18-01-2021 18:50:00 4.6 C 5.76 g/m*3 1.09 C 16.1 km/h
228 18-01-2021 18:55:00 4.6 C 5.76 g/m*3 0.45 C 20.9 km/h
229 18-01-2021 19:00:00 4.7 C 5.8 g/m*3 0.99 C 17.7 km/h
230 18-01-2021 19:05:00 4.7 C 5.8 g/m*3 1.73 C 12.9 km/h
231 18-01-2021 19:10:00 4.7 C 5.8 g/m*3 0.99 C 17.7 km/h
232 18-01-2021 19:15:00 4.7 C 5.8 g/m*3 1.46 C 14.5 km/h
233 18-01-2021 19:20:00 4.8 C 5.83 g/m*3 1.58 C 14.5 km/h
234 18-01-2021 19:25:00 4.8 C 5.83 g/m*3 0.9 C 19.3 km/h
235 18-01-2021 19:30:00 4.8 C 5.83 g/m*3 1.11 C 17.7 km/h
236 18-01-2021 19:35:00 4.8 C 5.83 g/m*3 1.11 C 17.7 km/h
237 18-01-2021 19:40:00 4.8 C 5.83 g/m*3 1.34 C 16.1 km/h
238 18-01-2021 19:45:00 4.8 C 5.83 g/m*3 1.34 C 16.1 km/h
239 18-01-2021 19:50:00 4.8 C 5.9 g/m*3 0.9 C 19.3 km/h
240 18-01-2021 19:55:00 4.8 C 5.9 g/m*3 0.71 C 20.9 km/h
241 18-01-2021 20:00:00 4.8 C 5.9 g/m*3 0.9 C 19.3 km/h
242 18-01-2021 20:05:00 4.8 C 5.9 g/m*3 1.58 C 14.5 km/h
243 18-01-2021 20:10:00 4.8 C 5.9 g/m*3 1.58 C 14.5 km/h
244 18-01-2021 20:15:00 4.8 C 5.9 g/m*3 1.11 C 17.7 km/h
245 18-01-2021 20:20:00 4.8 C 5.9 g/m*3 0.9 C 19.3 km/h
246 18-01-2021 20:25:00 4.8 C 5.9 g/m*3 0.35 C 24.1 km/h
247 18-01-2021 20:30:00 4.8 C 5.9 g/m*3 0.9 C 19.3 km/h
248 18-01-2021 20:35:00 4.8 C 5.9 g/m*3 1.85 C 12.9 km/h
249 18-01-2021 20:40:00 4.8 C 5.9 g/m*3 -0.12 C 29 km/h
250 18-01-2021 20:45:00 4.8 C 5.9 g/m*3 1.58 C 14.5 km/h
Sensor: Nr:Datum:Temp:Abs-Feuchte:Windchill:Wind:
Aussen-T/F 251 18-01-2021 20:50:00 4.8 C 5.9 g/m*3 1.85 C 12.9 km/h
252 18-01-2021 20:55:00 4.8 C 5.9 g/m*3 1.11 C 17.7 km/h
253 18-01-2021 21:00:00 4.8 C 5.9 g/m*3 1.34 C 16.1 km/h
254 18-01-2021 21:05:00 4.8 C 5.9 g/m*3 1.58 C 14.5 km/h
255 18-01-2021 21:10:00 4.8 C 5.9 g/m*3 1.11 C 17.7 km/h
256 18-01-2021 21:15:00 4.9 C 5.94 g/m*3 1.97 C 12.9 km/h
257 18-01-2021 21:20:00 4.8 C 5.9 g/m*3 2.15 C 11.3 km/h
258 18-01-2021 21:25:00 4.9 C 5.94 g/m*3 0.65 C 22.5 km/h
259 18-01-2021 21:30:00 4.9 C 5.94 g/m*3 1.97 C 12.9 km/h
260 18-01-2021 21:35:00 4.9 C 5.94 g/m*3 1.7 C 14.5 km/h
261 18-01-2021 21:40:00 4.9 C 5.94 g/m*3 1.7 C 14.5 km/h
262 18-01-2021 21:45:00 4.9 C 5.94 g/m*3 1.97 C 12.9 km/h
263 18-01-2021 21:50:00 4.9 C 6.01 g/m*3 1.97 C 12.9 km/h
264 18-01-2021 21:55:00 4.8 C 5.97 g/m*3 1.34 C 16.1 km/h
265 18-01-2021 22:00:00 4.8 C 5.97 g/m*3 1.58 C 14.5 km/h
266 18-01-2021 22:05:00 4.8 C 5.97 g/m*3 1.11 C 17.7 km/h
267 18-01-2021 22:10:00 4.8 C 5.97 g/m*3 1.58 C 14.5 km/h
268 18-01-2021 22:15:00 4.8 C 5.97 g/m*3 1.34 C 16.1 km/h
269 18-01-2021 22:20:00 4.8 C 5.97 g/m*3 1.58 C 14.5 km/h
270 18-01-2021 22:25:00 4.8 C 6.04 g/m*3 1.85 C 12.9 km/h
271 18-01-2021 22:30:00 4.8 C 6.04 g/m*3 1.34 C 16.1 km/h
272 18-01-2021 22:35:00 4.8 C 5.97 g/m*3 1.85 C 12.9 km/h
273 18-01-2021 22:40:00 4.8 C 5.97 g/m*3 1.34 C 16.1 km/h
274 18-01-2021 22:45:00 4.8 C 5.97 g/m*3 1.58 C 14.5 km/h
275 18-01-2021 22:50:00 4.8 C 5.97 g/m*3 1.34 C 16.1 km/h
Sensor: Nr:Datum:Temp:Abs-Feuchte:Windchill:Wind:
Aussen-T/F 276 18-01-2021 22:55:00 4.9 C 6.08 g/m*3 1.7 C 14.5 km/h
277 18-01-2021 23:00:00 4.9 C 6.08 g/m*3 1.97 C 12.9 km/h
278 18-01-2021 23:05:00 4.9 C 6.08 g/m*3 1.97 C 12.9 km/h
279 18-01-2021 23:10:00 4.9 C 6.08 g/m*3 2.27 C 11.3 km/h
280 18-01-2021 23:15:00 4.9 C 6.08 g/m*3 1.24 C 17.7 km/h
281 18-01-2021 23:20:00 4.9 C 6.01 g/m*3 0.83 C 20.9 km/h
282 18-01-2021 23:25:00 4.9 C 6.01 g/m*3 1.7 C 14.5 km/h
283 18-01-2021 23:30:00 5 C 6.05 g/m*3 0.61 C 24.1 km/h
284 18-01-2021 23:35:00 5.1 C 6.09 g/m*3 1.49 C 17.7 km/h
285 18-01-2021 23:40:00 5.1 C 6.09 g/m*3 1.28 C 19.3 km/h
286 18-01-2021 23:45:00 5.1 C 6.09 g/m*3 2.22 C 12.9 km/h
287 18-01-2021 23:50:00 5.1 C 6.09 g/m*3 1.71 C 16.1 km/h
288 18-01-2021 23:55:00 5.1 C 6.09 g/m*3 0.74 C 24.1 km/h

Legende:
   Min
   Max


Maximal/Minimal-Werte vom 18.01.2021 - 18.01.2021

Sensor Min Max Avg
Temp
(Aussen-T/F)
1.9 °C
18-01-2021  04:25:00
5.8 °C
18-01-2021  14:20:00
3.82 °C
Abs-Feuchte
(Aussen-T/F)
5.35 g/m*3
18-01-2021  04:25:00
6.18 g/m*3
18-01-2021  13:10:00
5.72 g/m*3
Windchill
(Aussen-T/F)
-1.07 C
18-01-2021  06:45:00
3.82 C
18-01-2021  16:10:00
1.58 C

Die Daten stammen von einer Davis Vantage Pro 2 Wetter-Station und werden unter Linux mit der Software wview2wettercgi und aufbereitet. Alle Angaben erfolgen ohne Gewähr für ihre Vollständigkeit oder Richtigkeit.
Kontakt: Rainer Krienke krienke@uni-koblenz.de . Meine Webseiten an der Uni Koblenz oder privat.
Version: $Revision: 0.78 $